CES532 RCSS-ZSPD
Flight info
| Callsign | CES532 |
|---|---|
| Flight time | N/A |
| Altitude | 31998 |
| Route | PIANO1J PIANO L3 VIOLA R596 OLIVE/N0466F390 R596 SULEM/K0867S1160 R596 DST/K0865S1190 B221 SHZ W58 BK BK83A |
| Aircraft | A20N/M-SDE2E3FGHIRWXY/LB1 |
Departure
| Time | N/A |
|---|---|
| Airport | Taipei Songshan International Airport (RCSS) |
Arrival
| Time | 2026-05-05 07:58 |
|---|---|
| Airport | Shanghai Pudong International Airport (ZSPD) |
| Time | Latitude | Longitude | Altitude | Speed | Heading |
|---|---|---|---|---|---|
| 2026-05-05 06:42 | 25.68568 | 121.81500 | 16991 ft | 454 kts | 355° |
| 2026-05-05 06:43 | 25.71726 | 121.81566 | 17472 ft | 456 kts | 355° |
| 2026-05-05 06:43 | 25.74858 | 121.81640 | 18225 ft | 450 kts | 355° |
| 2026-05-05 06:43 | 25.77943 | 121.81815 | 18987 ft | 449 kts | 1° |
| 2026-05-05 06:43 | 25.81065 | 121.82651 | 19408 ft | 464 kts | 14° |
| 2026-05-05 06:44 | 25.83955 | 121.84245 | 19714 ft | 479 kts | 28° |
| 2026-05-05 06:44 | 25.86719 | 121.86424 | 20157 ft | 484 kts | 33° |
| 2026-05-05 06:44 | 25.89415 | 121.88695 | 20516 ft | 489 kts | 33° |
| 2026-05-05 06:44 | 25.92129 | 121.90984 | 20869 ft | 493 kts | 33° |
| 2026-05-05 06:45 | 25.94865 | 121.93256 | 21242 ft | 496 kts | 32° |
| 2026-05-05 06:45 | 25.97649 | 121.95534 | 21630 ft | 499 kts | 32° |
| 2026-05-05 06:45 | 26.00491 | 121.97838 | 21973 ft | 503 kts | 32° |
| 2026-05-05 06:45 | 26.03301 | 122.00106 | 22304 ft | 506 kts | 31° |
| 2026-05-05 06:46 | 26.06178 | 122.02373 | 22676 ft | 508 kts | 31° |
| 2026-05-05 06:46 | 26.09090 | 122.04638 | 23039 ft | 511 kts | 31° |
| 2026-05-05 06:46 | 26.11999 | 122.06898 | 23418 ft | 513 kts | 31° |
| 2026-05-05 06:46 | 26.14927 | 122.09178 | 23798 ft | 515 kts | 31° |
| 2026-05-05 06:47 | 26.17878 | 122.11482 | 24150 ft | 518 kts | 31° |
| 2026-05-05 06:47 | 26.20859 | 122.13816 | 24535 ft | 520 kts | 31° |
| 2026-05-05 06:47 | 26.23824 | 122.16138 | 24899 ft | 523 kts | 31° |
| 2026-05-05 06:47 | 26.26800 | 122.18472 | 25210 ft | 526 kts | 31° |
| 2026-05-05 06:48 | 26.29807 | 122.20833 | 25361 ft | 532 kts | 31° |
| 2026-05-05 06:48 | 26.32813 | 122.23193 | 25642 ft | 535 kts | 31° |
| 2026-05-05 06:48 | 26.35872 | 122.25600 | 26057 ft | 534 kts | 31° |
| 2026-05-05 06:48 | 26.38896 | 122.27984 | 26522 ft | 532 kts | 31° |
| 2026-05-05 06:49 | 26.41919 | 122.30365 | 26962 ft | 530 kts | 31° |
| 2026-05-05 06:49 | 26.44890 | 122.32707 | 27346 ft | 530 kts | 31° |
| 2026-05-05 06:49 | 26.47930 | 122.35104 | 27731 ft | 529 kts | 31° |
| 2026-05-05 06:49 | 26.50935 | 122.37474 | 28117 ft | 529 kts | 31° |
| 2026-05-05 06:50 | 26.53917 | 122.39828 | 28514 ft | 528 kts | 31° |
| 2026-05-05 06:50 | 26.56920 | 122.42200 | 28898 ft | 528 kts | 31° |
| 2026-05-05 06:50 | 26.59901 | 122.44556 | 29265 ft | 527 kts | 31° |
| 2026-05-05 06:50 | 26.62900 | 122.46929 | 29607 ft | 527 kts | 31° |
| 2026-05-05 06:51 | 26.65868 | 122.49280 | 29939 ft | 527 kts | 31° |
| 2026-05-05 06:51 | 26.68849 | 122.51641 | 30251 ft | 527 kts | 31° |
| 2026-05-05 06:51 | 26.71863 | 122.54029 | 30547 ft | 528 kts | 31° |
| 2026-05-05 06:51 | 26.74880 | 122.56422 | 30799 ft | 530 kts | 31° |
| 2026-05-05 06:52 | 26.77872 | 122.58795 | 31026 ft | 532 kts | 30° |
| 2026-05-05 06:52 | 26.80890 | 122.61192 | 31289 ft | 532 kts | 30° |
| 2026-05-05 06:52 | 26.83906 | 122.63589 | 31537 ft | 533 kts | 30° |
| 2026-05-05 06:52 | 26.86931 | 122.65993 | 31760 ft | 535 kts | 31° |
| 2026-05-05 06:53 | 26.89938 | 122.68385 | 31923 ft | 536 kts | 31° |
| 2026-05-05 06:53 | 26.92998 | 122.70821 | 32045 ft | 538 kts | 31° |
| 2026-05-05 06:53 | 26.96044 | 122.73247 | 32054 ft | 540 kts | 31° |
| 2026-05-05 06:54 | 27.02172 | 122.78141 | 32063 ft | 539 kts | 31° |
| 2026-05-05 06:54 | 27.08284 | 122.83022 | 32066 ft | 540 kts | 31° |
| 2026-05-05 06:55 | 27.14445 | 122.87784 | 32059 ft | 536 kts | 24° |
| 2026-05-05 06:55 | 27.17791 | 122.89558 | 32065 ft | 526 kts | 13° |
| 2026-05-05 06:55 | 27.21275 | 122.90683 | 32074 ft | 516 kts | 3° |
| 2026-05-05 06:55 | 27.24783 | 122.91083 | 32052 ft | 498 kts | 348° |
| 2026-05-05 06:56 | 27.28099 | 122.90471 | 32069 ft | 480 kts | 335° |
| 2026-05-05 06:56 | 27.31239 | 122.89213 | 32063 ft | 467 kts | 326° |
| 2026-05-05 06:56 | 27.33132 | 122.88129 | 32065 ft | 459 kts | 320° |
| 2026-05-05 06:56 | 27.36551 | 122.85385 | 32066 ft | 445 kts | 309° |
| 2026-05-05 06:57 | 27.38687 | 122.82961 | 32072 ft | 435 kts | 301° |
| 2026-05-05 06:57 | 27.41875 | 122.77365 | 32068 ft | 417 kts | 287° |
| 2026-05-05 06:58 | 27.43530 | 122.71256 | 32058 ft | 404 kts | 273° |
| 2026-05-05 06:58 | 27.43836 | 122.65038 | 32061 ft | 398 kts | 266° |
| 2026-05-05 06:59 | 27.43865 | 122.58810 | 32057 ft | 398 kts | 266° |
| 2026-05-05 06:59 | 27.43881 | 122.52602 | 32059 ft | 398 kts | 266° |
| 2026-05-05 07:00 | 27.43939 | 122.46390 | 32051 ft | 399 kts | 268° |
| 2026-05-05 07:00 | 27.44414 | 122.40173 | 32055 ft | 402 kts | 272° |
| 2026-05-05 07:01 | 27.45368 | 122.33955 | 32062 ft | 404 kts | 275° |
| 2026-05-05 07:01 | 27.46439 | 122.27793 | 32049 ft | 403 kts | 275° |
| 2026-05-05 07:02 | 27.47517 | 122.21609 | 32052 ft | 404 kts | 275° |
| 2026-05-05 07:02 | 27.48594 | 122.15431 | 32049 ft | 403 kts | 275° |
| 2026-05-05 07:03 | 27.49670 | 122.09251 | 32056 ft | 403 kts | 275° |
| 2026-05-05 07:03 | 27.50740 | 122.03075 | 32050 ft | 402 kts | 275° |
| 2026-05-05 07:04 | 27.51804 | 121.96925 | 32058 ft | 401 kts | 275° |
| 2026-05-05 07:04 | 27.52866 | 121.90773 | 32059 ft | 401 kts | 275° |
| 2026-05-05 07:05 | 27.53921 | 121.84630 | 32052 ft | 401 kts | 275° |
| 2026-05-05 07:05 | 27.54957 | 121.78589 | 32056 ft | 402 kts | 275° |
| 2026-05-05 07:06 | 27.56024 | 121.72355 | 32051 ft | 402 kts | 275° |
| 2026-05-05 07:06 | 27.57081 | 121.66148 | 32054 ft | 402 kts | 275° |
| 2026-05-05 07:07 | 27.58128 | 121.59990 | 32055 ft | 402 kts | 275° |
| 2026-05-05 07:07 | 27.59199 | 121.53821 | 32051 ft | 402 kts | 275° |
| 2026-05-05 07:08 | 27.60297 | 121.47672 | 32052 ft | 403 kts | 276° |
| 2026-05-05 07:08 | 27.61397 | 121.41472 | 32053 ft | 402 kts | 276° |
| 2026-05-05 07:09 | 27.62489 | 121.35298 | 32052 ft | 402 kts | 276° |
| 2026-05-05 07:09 | 27.63561 | 121.29205 | 32054 ft | 402 kts | 275° |
| 2026-05-05 07:10 | 27.64643 | 121.23030 | 32053 ft | 401 kts | 275° |
| 2026-05-05 07:10 | 27.65722 | 121.16872 | 32054 ft | 401 kts | 275° |
| 2026-05-05 07:11 | 27.66795 | 121.10712 | 32054 ft | 402 kts | 275° |
| 2026-05-05 07:11 | 27.67869 | 121.04539 | 32055 ft | 401 kts | 275° |
| 2026-05-05 07:12 | 27.68931 | 120.98410 | 32053 ft | 401 kts | 275° |
| 2026-05-05 07:12 | 27.69995 | 120.92254 | 32049 ft | 400 kts | 275° |
| 2026-05-05 07:13 | 27.71054 | 120.86106 | 32047 ft | 401 kts | 275° |
| 2026-05-05 07:13 | 27.72118 | 120.79906 | 32045 ft | 400 kts | 275° |
| 2026-05-05 07:14 | 27.73429 | 120.73800 | 32038 ft | 410 kts | 285° |
| 2026-05-05 07:14 | 27.74795 | 120.70970 | 32037 ft | 423 kts | 296° |
| 2026-05-05 07:14 | 27.76747 | 120.68395 | 32031 ft | 438 kts | 307° |
| 2026-05-05 07:14 | 27.79202 | 120.66300 | 32030 ft | 455 kts | 319° |
| 2026-05-05 07:15 | 27.82175 | 120.64788 | 32027 ft | 476 kts | 333° |
| 2026-05-05 07:15 | 27.85471 | 120.64082 | 32026 ft | 497 kts | 347° |
| 2026-05-05 07:15 | 27.88997 | 120.64189 | 32046 ft | 508 kts | 355° |
| 2026-05-05 07:16 | 27.96038 | 120.64928 | 32031 ft | 510 kts | 356° |
| 2026-05-05 07:16 | 28.03152 | 120.65658 | 32032 ft | 510 kts | 356° |
| 2026-05-05 07:17 | 28.10177 | 120.66341 | 32033 ft | 510 kts | 356° |
| 2026-05-05 07:17 | 28.17282 | 120.67034 | 32038 ft | 512 kts | 356° |
| 2026-05-05 07:18 | 28.24376 | 120.67734 | 32036 ft | 511 kts | 356° |
| 2026-05-05 07:18 | 28.31447 | 120.68429 | 32039 ft | 511 kts | 356° |
| 2026-05-05 07:19 | 28.38561 | 120.69127 | 32035 ft | 511 kts | 356° |
| 2026-05-05 07:19 | 28.45655 | 120.69828 | 32037 ft | 511 kts | 356° |
| 2026-05-05 07:20 | 28.52717 | 120.70537 | 32045 ft | 511 kts | 356° |
| 2026-05-05 07:20 | 28.59846 | 120.71256 | 32044 ft | 512 kts | 356° |
| 2026-05-05 07:21 | 28.66915 | 120.71969 | 32044 ft | 511 kts | 356° |
| 2026-05-05 07:21 | 28.74004 | 120.72712 | 32041 ft | 511 kts | 357° |
| 2026-05-05 07:22 | 28.81041 | 120.73493 | 32043 ft | 512 kts | 357° |
| 2026-05-05 07:22 | 28.88128 | 120.74271 | 32040 ft | 511 kts | 357° |
| 2026-05-05 07:23 | 28.95247 | 120.74999 | 32034 ft | 512 kts | 356° |
| 2026-05-05 07:23 | 29.02332 | 120.75724 | 32026 ft | 511 kts | 357° |
| 2026-05-05 07:24 | 29.09396 | 120.76450 | 32028 ft | 511 kts | 357° |
| 2026-05-05 07:24 | 29.16521 | 120.77183 | 32025 ft | 511 kts | 357° |
| 2026-05-05 07:25 | 29.23552 | 120.77911 | 31959 ft | 510 kts | 357° |
| 2026-05-05 07:25 | 29.27085 | 120.78278 | 31728 ft | 508 kts | 357° |
| 2026-05-05 07:25 | 29.30636 | 120.78644 | 31500 ft | 507 kts | 357° |
| 2026-05-05 07:25 | 29.34121 | 120.79005 | 31279 ft | 503 kts | 358° |
| 2026-05-05 07:26 | 29.37615 | 120.79369 | 31052 ft | 500 kts | 358° |
| 2026-05-05 07:26 | 29.41058 | 120.79726 | 30829 ft | 499 kts | 358° |
| 2026-05-05 07:26 | 29.44516 | 120.80084 | 30602 ft | 498 kts | 358° |
| 2026-05-05 07:26 | 29.47942 | 120.80438 | 30379 ft | 498 kts | 358° |
| 2026-05-05 07:27 | 29.51434 | 120.80800 | 30037 ft | 498 kts | 358° |
| 2026-05-05 07:27 | 29.54839 | 120.81357 | 29620 ft | 506 kts | 8° |
| 2026-05-05 07:27 | 29.58182 | 120.82732 | 29196 ft | 518 kts | 22° |
| 2026-05-05 07:27 | 29.61234 | 120.84958 | 28768 ft | 524 kts | 36° |
| 2026-05-05 07:28 | 29.63797 | 120.87927 | 28336 ft | 527 kts | 51° |
| 2026-05-05 07:28 | 29.65903 | 120.91418 | 27905 ft | 526 kts | 56° |
| 2026-05-05 07:28 | 29.67831 | 120.94915 | 27482 ft | 525 kts | 57° |
| 2026-05-05 07:28 | 29.69791 | 120.98507 | 27050 ft | 524 kts | 57° |
| 2026-05-05 07:29 | 29.71741 | 121.02035 | 26605 ft | 523 kts | 56° |
| 2026-05-05 07:29 | 29.73697 | 121.05516 | 26180 ft | 522 kts | 56° |
| 2026-05-05 07:29 | 29.75685 | 121.09021 | 25739 ft | 520 kts | 56° |
| 2026-05-05 07:29 | 29.77655 | 121.12473 | 25311 ft | 520 kts | 56° |
| 2026-05-05 07:30 | 29.79653 | 121.15967 | 24874 ft | 518 kts | 55° |
| 2026-05-05 07:30 | 29.83586 | 121.22859 | 23989 ft | 516 kts | 55° |
| 2026-05-05 07:30 | 29.85551 | 121.26308 | 23525 ft | 516 kts | 55° |
| 2026-05-05 07:31 | 29.87524 | 121.29716 | 23081 ft | 512 kts | 52° |
| 2026-05-05 07:31 | 29.89839 | 121.32788 | 22608 ft | 503 kts | 41° |
| 2026-05-05 07:31 | 29.92521 | 121.35298 | 22156 ft | 495 kts | 31° |
| 2026-05-05 07:31 | 29.95472 | 121.37304 | 21714 ft | 487 kts | 26° |
| 2026-05-05 07:32 | 29.98420 | 121.39119 | 21259 ft | 482 kts | 25° |
| 2026-05-05 07:32 | 30.01364 | 121.40902 | 20744 ft | 479 kts | 25° |
| 2026-05-05 07:32 | 30.04312 | 121.42700 | 20016 ft | 469 kts | 25° |
| 2026-05-05 07:32 | 30.07168 | 121.44461 | 19262 ft | 464 kts | 25° |
| 2026-05-05 07:33 | 30.09984 | 121.46214 | 18486 ft | 459 kts | 26° |
| 2026-05-05 07:33 | 30.12760 | 121.47950 | 17744 ft | 454 kts | 26° |
| 2026-05-05 07:33 | 30.15515 | 121.49679 | 16986 ft | 449 kts | 26° |
| 2026-05-05 07:33 | 30.18247 | 121.51395 | 16296 ft | 444 kts | 26° |
| 2026-05-05 07:34 | 30.20925 | 121.53081 | 15690 ft | 432 kts | 26° |
| 2026-05-05 07:34 | 30.23509 | 121.54708 | 15076 ft | 419 kts | 26° |
| 2026-05-05 07:34 | 30.26072 | 121.56323 | 14455 ft | 415 kts | 26° |
| 2026-05-05 07:34 | 30.28568 | 121.57927 | 13898 ft | 411 kts | 27° |
| 2026-05-05 07:35 | 30.31030 | 121.59526 | 13334 ft | 407 kts | 27° |
| 2026-05-05 07:35 | 30.33480 | 121.61117 | 12726 ft | 404 kts | 27° |
| 2026-05-05 07:35 | 30.35946 | 121.62716 | 12189 ft | 396 kts | 27° |
| 2026-05-05 07:35 | 30.38260 | 121.64259 | 11867 ft | 371 kts | 29° |
| 2026-05-05 07:36 | 30.40367 | 121.65743 | 11593 ft | 344 kts | 30° |
| 2026-05-05 07:36 | 30.42341 | 121.67148 | 11351 ft | 319 kts | 30° |
| 2026-05-05 07:36 | 30.44165 | 121.68441 | 11124 ft | 301 kts | 30° |
| 2026-05-05 07:36 | 30.45928 | 121.69685 | 10928 ft | 295 kts | 30° |
| 2026-05-05 07:37 | 30.47681 | 121.70920 | 10730 ft | 293 kts | 30° |
| 2026-05-05 07:37 | 30.49432 | 121.72150 | 10552 ft | 292 kts | 30° |
| 2026-05-05 07:37 | 30.51145 | 121.73356 | 10400 ft | 291 kts | 30° |
| 2026-05-05 07:37 | 30.52882 | 121.74580 | 10261 ft | 290 kts | 30° |
| 2026-05-05 07:38 | 30.54627 | 121.75809 | 10131 ft | 290 kts | 30° |
| 2026-05-05 07:38 | 30.56360 | 121.76967 | 10006 ft | 289 kts | 25° |
| 2026-05-05 07:38 | 30.58208 | 121.77825 | 9816 ft | 285 kts | 15° |
| 2026-05-05 07:38 | 30.60135 | 121.78404 | 9823 ft | 286 kts | 12° |
| 2026-05-05 07:39 | 30.62083 | 121.78926 | 9746 ft | 286 kts | 12° |
| 2026-05-05 07:39 | 30.64033 | 121.79442 | 9721 ft | 286 kts | 12° |
| 2026-05-05 07:39 | 30.65988 | 121.79962 | 9717 ft | 287 kts | 12° |
| 2026-05-05 07:39 | 30.67926 | 121.80482 | 9737 ft | 287 kts | 12° |
| 2026-05-05 07:40 | 30.69862 | 121.81005 | 9738 ft | 287 kts | 12° |
| 2026-05-05 07:40 | 30.71811 | 121.81535 | 9727 ft | 287 kts | 12° |
| 2026-05-05 07:40 | 30.73749 | 121.82061 | 9727 ft | 286 kts | 12° |
| 2026-05-05 07:40 | 30.75711 | 121.82595 | 9655 ft | 286 kts | 12° |
| 2026-05-05 07:41 | 30.77630 | 121.83117 | 9504 ft | 285 kts | 12° |
| 2026-05-05 07:41 | 30.79572 | 121.83646 | 9333 ft | 284 kts | 12° |
| 2026-05-05 07:41 | 30.81498 | 121.84171 | 9163 ft | 284 kts | 12° |
| 2026-05-05 07:41 | 30.83401 | 121.84691 | 9046 ft | 283 kts | 12° |
| 2026-05-05 07:42 | 30.85328 | 121.85217 | 8918 ft | 283 kts | 12° |
| 2026-05-05 07:42 | 30.87252 | 121.85743 | 8752 ft | 282 kts | 12° |
| 2026-05-05 07:42 | 30.89182 | 121.86270 | 8636 ft | 282 kts | 12° |
| 2026-05-05 07:42 | 30.91074 | 121.86784 | 8593 ft | 282 kts | 11° |
| 2026-05-05 07:43 | 30.93030 | 121.86870 | 8580 ft | 281 kts | 346° |
| 2026-05-05 07:43 | 30.94770 | 121.85897 | 8531 ft | 280 kts | 321° |
| 2026-05-05 07:43 | 30.96250 | 121.84396 | 8543 ft | 280 kts | 318° |
| 2026-05-05 07:43 | 30.97715 | 121.82873 | 8532 ft | 280 kts | 318° |
| 2026-05-05 07:44 | 30.99172 | 121.81380 | 8516 ft | 280 kts | 319° |
| 2026-05-05 07:44 | 31.00635 | 121.79897 | 8511 ft | 281 kts | 319° |
| 2026-05-05 07:44 | 31.02134 | 121.78386 | 8309 ft | 280 kts | 319° |
| 2026-05-05 07:44 | 31.03587 | 121.76916 | 8172 ft | 279 kts | 319° |
| 2026-05-05 07:45 | 31.05058 | 121.75405 | 8024 ft | 279 kts | 319° |
| 2026-05-05 07:45 | 31.06493 | 121.73923 | 7879 ft | 273 kts | 319° |
| 2026-05-05 07:45 | 31.07884 | 121.72488 | 7757 ft | 264 kts | 319° |
| 2026-05-05 07:45 | 31.09237 | 121.71091 | 7606 ft | 254 kts | 319° |
| 2026-05-05 07:46 | 31.10540 | 121.69747 | 7419 ft | 246 kts | 319° |
| 2026-05-05 07:46 | 31.11806 | 121.68451 | 7264 ft | 241 kts | 321° |
| 2026-05-05 07:46 | 31.13181 | 121.67349 | 7086 ft | 242 kts | 331° |
| 2026-05-05 07:46 | 31.14739 | 121.66546 | 6944 ft | 242 kts | 340° |
| 2026-05-05 07:47 | 31.16348 | 121.65942 | 6799 ft | 243 kts | 343° |
| 2026-05-05 07:47 | 31.17955 | 121.65375 | 6654 ft | 243 kts | 343° |
| 2026-05-05 07:47 | 31.19562 | 121.64809 | 6508 ft | 243 kts | 343° |
| 2026-05-05 07:47 | 31.21175 | 121.64233 | 6360 ft | 242 kts | 344° |
| 2026-05-05 07:48 | 31.22790 | 121.63653 | 6213 ft | 242 kts | 343° |
| 2026-05-05 07:48 | 31.24408 | 121.63071 | 6080 ft | 241 kts | 344° |
| 2026-05-05 07:48 | 31.26010 | 121.62487 | 5942 ft | 241 kts | 343° |
| 2026-05-05 07:48 | 31.27593 | 121.61889 | 5820 ft | 242 kts | 342° |
| 2026-05-05 07:49 | 31.29216 | 121.61269 | 5733 ft | 241 kts | 342° |
| 2026-05-05 07:49 | 31.30803 | 121.60663 | 5583 ft | 241 kts | 342° |
| 2026-05-05 07:49 | 31.32406 | 121.60052 | 5421 ft | 241 kts | 342° |
| 2026-05-05 07:49 | 31.33995 | 121.59448 | 5239 ft | 241 kts | 342° |
| 2026-05-05 07:50 | 31.35590 | 121.58839 | 5033 ft | 241 kts | 342° |
| 2026-05-05 07:50 | 31.37179 | 121.58234 | 4871 ft | 242 kts | 342° |
| 2026-05-05 07:50 | 31.38859 | 121.57990 | 4683 ft | 241 kts | 13° |
| 2026-05-05 07:50 | 31.40284 | 121.58928 | 4533 ft | 238 kts | 53° |
| 2026-05-05 07:51 | 31.40922 | 121.60661 | 4365 ft | 235 kts | 82° |
| 2026-05-05 07:51 | 31.41172 | 121.62534 | 4213 ft | 234 kts | 83° |
| 2026-05-05 07:51 | 31.41451 | 121.64407 | 4053 ft | 232 kts | 81° |
| 2026-05-05 07:51 | 31.41664 | 121.66264 | 3877 ft | 230 kts | 98° |
| 2026-05-05 07:52 | 31.41133 | 121.67973 | 3705 ft | 225 kts | 130° |
| 2026-05-05 07:52 | 31.39917 | 121.69079 | 3534 ft | 222 kts | 156° |
| 2026-05-05 07:52 | 31.38472 | 121.69722 | 3365 ft | 222 kts | 163° |
| 2026-05-05 07:52 | 31.37013 | 121.70249 | 3172 ft | 216 kts | 164° |
| 2026-05-05 07:53 | 31.35603 | 121.70748 | 2988 ft | 210 kts | 163° |
| 2026-05-05 07:53 | 31.34237 | 121.71245 | 2875 ft | 199 kts | 163° |
| 2026-05-05 07:53 | 31.32959 | 121.71721 | 2849 ft | 184 kts | 163° |
| 2026-05-05 07:53 | 31.31777 | 121.72166 | 2970 ft | 174 kts | 163° |
| 2026-05-05 07:54 | 31.30681 | 121.72582 | 2957 ft | 153 kts | 163° |
| 2026-05-05 07:54 | 31.29687 | 121.72960 | 2828 ft | 148 kts | 163° |
| 2026-05-05 07:54 | 31.28737 | 121.73320 | 2651 ft | 139 kts | 163° |
| 2026-05-05 07:54 | 31.27827 | 121.73666 | 2462 ft | 137 kts | 163° |
| 2026-05-05 07:55 | 31.26915 | 121.74012 | 2274 ft | 136 kts | 163° |
| 2026-05-05 07:55 | 31.26022 | 121.74351 | 2096 ft | 136 kts | 163° |
| 2026-05-05 07:55 | 31.25118 | 121.74693 | 1915 ft | 136 kts | 163° |
| 2026-05-05 07:55 | 31.24222 | 121.75032 | 1743 ft | 136 kts | 163° |
| 2026-05-05 07:56 | 31.23314 | 121.75375 | 1569 ft | 135 kts | 163° |
| 2026-05-05 07:56 | 31.22424 | 121.75713 | 1395 ft | 135 kts | 163° |
| 2026-05-05 07:56 | 31.21525 | 121.76052 | 1225 ft | 135 kts | 163° |
| 2026-05-05 07:56 | 31.20631 | 121.76390 | 1055 ft | 134 kts | 163° |
| 2026-05-05 07:57 | 31.19742 | 121.76726 | 883 ft | 134 kts | 163° |
| 2026-05-05 07:57 | 31.18856 | 121.77060 | 713 ft | 133 kts | 163° |
| 2026-05-05 07:57 | 31.17977 | 121.77392 | 543 ft | 133 kts | 162° |
| 2026-05-05 07:57 | 31.17096 | 121.77724 | 371 ft | 132 kts | 163° |
| 2026-05-05 07:58 | 31.16220 | 121.78056 | 196 ft | 130 kts | 162° |
| 2026-05-05 07:58 | 31.15368 | 121.78374 | 35 ft | 126 kts | 163° |
| 2026-05-05 07:58 | 31.14637 | 121.78652 | 24 ft | 87 kts | 163° |
| 2026-05-05 07:58 | 31.14223 | 121.78806 | 24 ft | 43 kts | 163° |
| 2026-05-05 07:59 | 31.14034 | 121.78879 | 24 ft | 22 kts | 160° |
| 2026-05-05 07:59 | 31.13905 | 121.78968 | 24 ft | 20 kts | 141° |
| 2026-05-05 07:59 | 31.13821 | 121.79057 | 24 ft | 15 kts | 134° |
| 2026-05-05 07:59 | 31.13750 | 121.79147 | 24 ft | 15 kts | 134° |
| 2026-05-05 08:00 | 31.13696 | 121.79208 | 24 ft | 6 kts | 140° |
| 2026-05-05 08:00 | 31.13656 | 121.79234 | 24 ft | 7 kts | 161° |
| 2026-05-05 08:00 | 31.13606 | 121.79269 | 23 ft | 9 kts | 117° |
| 2026-05-05 08:00 | 31.13614 | 121.79345 | 23 ft | 9 kts | 72° |
| 2026-05-05 08:01 | 31.13636 | 121.79425 | 23 ft | 11 kts | 72° |
| 2026-05-05 08:01 | 31.13662 | 121.79520 | 21 ft | 13 kts | 72° |
| 2026-05-05 08:01 | 31.13690 | 121.79620 | 22 ft | 12 kts | 72° |
| 2026-05-05 08:01 | 31.13719 | 121.79723 | 21 ft | 13 kts | 72° |
| 2026-05-05 08:02 | 31.13744 | 121.79797 | 21 ft | 8 kts | 47° |
| 2026-05-05 08:02 | 31.13803 | 121.79806 | 21 ft | 9 kts | 342° |